createdAt,value
2023-02-27T00:01:41.466Z,-1.90
2023-02-27T00:04:08.557Z,-1.90
2023-02-27T00:06:35.491Z,-1.90
2023-02-27T00:09:02.473Z,-1.90
2023-02-27T00:11:35.610Z,-1.90
2023-02-27T00:14:02.508Z,-1.90
2023-02-27T00:16:29.459Z,-1.90
2023-02-27T00:18:59.515Z,-1.90
2023-02-27T00:21:26.687Z,-1.90
2023-02-27T00:23:53.985Z,-1.90
2023-02-27T00:26:20.851Z,-1.90
2023-02-27T00:28:47.715Z,-1.90
2023-02-27T00:31:16.027Z,-1.90
2023-02-27T00:33:42.905Z,-1.90
2023-02-27T00:36:10.071Z,-1.90
2023-02-27T00:38:36.984Z,-1.90
2023-02-27T00:41:04.075Z,-1.90
2023-02-27T00:43:31.004Z,-1.90
2023-02-27T00:45:58.304Z,-1.90
2023-02-27T00:48:25.146Z,-1.90
2023-02-27T00:50:52.054Z,-2.00
2023-02-27T00:53:19.005Z,-2.00
2023-02-27T00:55:45.901Z,-2.10
2023-02-27T00:58:12.884Z,-2.10
2023-02-27T01:00:39.957Z,-2.10
2023-02-27T01:03:06.901Z,-2.10
2023-02-27T01:05:33.915Z,-2.20
2023-02-27T01:08:00.843Z,-2.20
2023-02-27T01:10:27.755Z,-2.20
2023-02-27T01:12:54.638Z,-2.20
2023-02-27T01:15:21.944Z,-2.20
2023-02-27T01:17:49.334Z,-2.20
2023-02-27T01:20:16.506Z,-2.20
2023-02-27T01:22:43.505Z,-2.20
2023-02-27T01:25:11.235Z,-2.20
2023-02-27T01:27:38.172Z,-2.20
2023-02-27T01:30:06.946Z,-2.10
2023-02-27T01:32:33.975Z,-2.20
2023-02-27T01:35:01.076Z,-2.10
2023-02-27T01:37:28.001Z,-2.10
2023-02-27T01:39:54.913Z,-2.20
2023-02-27T01:42:24.470Z,-2.20
2023-02-27T01:45:09.853Z,-2.30
2023-02-27T01:47:39.985Z,-2.30
2023-02-27T01:50:07.909Z,-2.30
2023-02-27T01:52:37.031Z,-2.20
2023-02-27T01:55:06.522Z,-2.30
2023-02-27T01:57:33.403Z,-2.30
2023-02-27T02:00:00.288Z,-2.30
2023-02-27T02:02:33.641Z,-2.20
2023-02-27T02:05:01.293Z,-2.30
2023-02-27T02:07:29.722Z,-2.40
2023-02-27T02:09:59.583Z,-2.40
2023-02-27T02:12:30.010Z,-2.50
2023-02-27T02:14:56.906Z,-2.50
2023-02-27T02:17:26.904Z,-2.60
2023-02-27T02:20:26.965Z,-2.60
2023-02-27T02:23:25.795Z,-2.60
2023-02-27T02:26:07.992Z,-2.60
2023-02-27T02:29:12.157Z,-2.70
2023-02-27T02:32:16.504Z,-2.70
2023-02-27T02:35:25.759Z,-2.70
2023-02-27T02:38:26.822Z,-2.80
2023-02-27T02:40:57.369Z,-2.80
2023-02-27T02:43:36.227Z,-2.80
2023-02-27T02:46:36.556Z,-2.80
2023-02-27T02:49:28.251Z,-2.80
2023-02-27T02:52:07.204Z,-2.80
2023-02-27T02:54:40.197Z,-2.70
2023-02-27T02:57:19.494Z,-2.70
2023-02-27T03:00:07.895Z,-2.70
2023-02-27T03:02:42.547Z,-2.70
2023-02-27T03:05:32.969Z,-2.80
2023-02-27T03:08:06.133Z,-2.80
2023-02-27T03:10:45.312Z,-2.80
2023-02-27T03:13:26.328Z,-2.80
2023-02-27T03:16:15.120Z,-2.80
2023-02-27T03:18:50.536Z,-2.80
2023-02-27T03:21:26.828Z,-2.80
2023-02-27T03:23:56.315Z,-2.80
2023-02-27T03:26:29.221Z,-2.80
2023-02-27T03:29:01.668Z,-2.80
2023-02-27T03:32:01.067Z,-2.80
2023-02-27T03:34:33.243Z,-2.80
2023-02-27T03:37:24.823Z,-2.80
2023-02-27T03:40:02.296Z,-2.80
2023-02-27T03:42:35.199Z,-2.70
2023-02-27T03:45:15.281Z,-2.80
2023-02-27T03:47:42.390Z,-2.80
2023-02-27T03:50:09.981Z,-2.80
2023-02-27T03:52:37.218Z,-2.80
2023-02-27T03:55:12.376Z,-2.80
2023-02-27T03:57:41.126Z,-2.90
2023-02-27T04:00:11.851Z,-2.90
2023-02-27T04:02:40.977Z,-3.00
2023-02-27T04:05:08.446Z,-3.10
2023-02-27T04:08:06.528Z,-3.10
2023-02-27T04:10:36.389Z,-3.20
2023-02-27T04:13:16.383Z,-3.30
2023-02-27T04:15:52.185Z,-3.50
2023-02-27T04:18:28.261Z,-3.60
2023-02-27T04:21:00.908Z,-3.50
2023-02-27T04:23:33.592Z,-3.60
2023-02-27T04:26:12.183Z,-3.70
2023-02-27T04:29:05.975Z,-3.80
2023-02-27T04:31:46.199Z,-4.00
2023-02-27T04:34:22.850Z,-4.10
2023-02-27T04:36:53.977Z,-4.10
2023-02-27T04:39:32.556Z,-4.20
2023-02-27T04:42:04.918Z,-4.20
2023-02-27T04:44:36.332Z,-4.30
2023-02-27T04:47:06.152Z,-4.30
2023-02-27T04:49:35.583Z,-4.40
2023-02-27T04:52:14.180Z,-4.40
2023-02-27T04:54:52.679Z,-4.40
2023-02-27T04:57:25.295Z,-4.40
2023-02-27T04:59:55.723Z,-4.40
2023-02-27T05:02:25.403Z,-4.50
2023-02-27T05:04:58.210Z,-4.50
2023-02-27T05:07:35.012Z,-4.50
2023-02-27T05:10:15.704Z,-4.60
2023-02-27T05:12:57.554Z,-4.60
2023-02-27T05:15:36.991Z,-4.60
2023-02-27T05:18:08.257Z,-4.60
2023-02-27T05:21:13.498Z,-4.70
2023-02-27T05:23:58.400Z,-4.80
2023-02-27T05:26:59.635Z,-4.90
2023-02-27T05:29:47.036Z,-4.90
2023-02-27T05:32:26.328Z,-4.90
2023-02-27T05:35:07.136Z,-4.90
2023-02-27T05:37:55.336Z,-5.00
2023-02-27T05:40:40.940Z,-5.00
2023-02-27T05:43:16.419Z,-4.90
2023-02-27T05:45:46.848Z,-5.00
2023-02-27T05:48:22.367Z,-5.00
2023-02-27T05:50:52.074Z,-5.00
2023-02-27T05:53:21.921Z,-5.00
2023-02-27T05:55:54.520Z,-4.90
2023-02-27T05:58:25.432Z,-4.90
2023-02-27T06:00:59.161Z,-4.80
2023-02-27T06:03:31.594Z,-4.80
2023-02-27T06:06:01.020Z,-4.80
2023-02-27T06:08:28.750Z,-4.80
2023-02-27T06:10:56.221Z,-4.90
2023-02-27T06:13:24.232Z,-4.90
2023-02-27T06:15:51.386Z,-4.90
2023-02-27T06:18:19.385Z,-4.90
2023-02-27T06:20:47.182Z,-4.90
2023-02-27T06:23:14.174Z,-4.90
2023-02-27T06:25:42.371Z,-4.80
2023-02-27T06:28:10.403Z,-4.90
2023-02-27T06:30:38.268Z,-4.80
2023-02-27T06:33:05.552Z,-4.80
2023-02-27T06:35:32.655Z,-4.80
2023-02-27T06:37:59.590Z,-4.70
2023-02-27T06:40:26.522Z,-4.60
2023-02-27T06:42:53.425Z,-4.50
2023-02-27T06:45:20.426Z,-4.40
2023-02-27T06:47:47.587Z,-4.30
2023-02-27T06:50:14.753Z,-4.20
2023-02-27T06:52:42.043Z,-4.20
2023-02-27T06:55:09.898Z,-4.10
2023-02-27T06:57:36.992Z,-4.10
2023-02-27T07:00:05.445Z,-3.90
2023-02-27T07:02:32.298Z,-4.00
2023-02-27T07:04:59.221Z,-3.70
2023-02-27T07:07:35.454Z,-3.80
2023-02-27T07:10:06.013Z,-3.70
2023-02-27T07:12:32.954Z,-3.90
2023-02-27T07:15:00.177Z,-4.00
2023-02-27T07:17:27.093Z,-4.00
2023-02-27T07:19:54.672Z,-4.00
2023-02-27T07:22:21.620Z,-3.90
2023-02-27T07:24:48.523Z,-3.90
2023-02-27T07:27:15.472Z,-3.90
2023-02-27T07:29:42.442Z,-3.80
2023-02-27T07:32:09.454Z,-3.80
2023-02-27T07:34:36.409Z,-3.60
2023-02-27T07:37:03.320Z,-3.60
2023-02-27T07:39:30.313Z,-3.50
2023-02-27T07:41:57.144Z,-3.40
2023-02-27T07:44:24.051Z,-3.40
2023-02-27T07:46:50.983Z,-3.40
2023-02-27T07:49:17.881Z,-3.30
2023-02-27T07:51:45.296Z,-3.30
2023-02-27T07:54:12.203Z,-3.30
2023-02-27T07:56:42.037Z,-3.00
2023-02-27T07:59:09.056Z,-2.70
2023-02-27T08:01:35.985Z,-2.40
2023-02-27T08:04:02.947Z,-1.70
2023-02-27T08:06:30.281Z,-0.50
2023-02-27T08:08:57.513Z,0.20
2023-02-27T08:11:24.613Z,1.00
2023-02-27T08:14:00.885Z,1.90
2023-02-27T08:16:29.071Z,2.70
2023-02-27T08:18:56.856Z,3.10
2023-02-27T08:21:23.736Z,4.50
2023-02-27T08:23:50.666Z,4.60
2023-02-27T08:26:17.572Z,5.80
2023-02-27T08:28:44.618Z,5.20
2023-02-27T08:31:11.564Z,4.40
2023-02-27T08:33:38.518Z,5.60
2023-02-27T08:36:06.141Z,5.90
2023-02-27T08:38:33.112Z,7.10
2023-02-27T08:41:00.041Z,7.70
2023-02-27T08:43:26.920Z,8.60
2023-02-27T08:45:54.158Z,7.90
2023-02-27T08:48:21.207Z,8.60
2023-02-27T08:50:48.321Z,9.20
2023-02-27T08:53:15.250Z,8.50
2023-02-27T08:55:42.932Z,6.90
2023-02-27T08:58:11.091Z,9.00
2023-02-27T09:00:38.111Z,10.20
2023-02-27T09:03:05.217Z,10.40
2023-02-27T09:05:35.395Z,9.90
2023-02-27T09:08:05.028Z,9.90
2023-02-27T09:13:02.973Z,11.70
2023-02-27T09:15:31.911Z,12.70
2023-02-27T09:18:03.122Z,12.10
2023-02-27T09:20:36.106Z,9.10
2023-02-27T09:23:04.069Z,7.30
2023-02-27T09:25:31.485Z,6.90
2023-02-27T09:27:58.715Z,6.20
2023-02-27T09:30:25.759Z,7.80
2023-02-27T09:32:52.752Z,7.90
2023-02-27T09:35:23.082Z,8.90
2023-02-27T09:37:50.068Z,8.80
2023-02-27T09:40:25.486Z,9.70
2023-02-27T09:42:57.095Z,8.50
2023-02-27T09:45:34.586Z,7.40
2023-02-27T09:48:12.358Z,7.50
2023-02-27T09:50:48.227Z,7.30
2023-02-27T09:53:37.479Z,9.00
2023-02-27T09:56:15.794Z,7.90
2023-02-27T09:58:51.199Z,8.00
2023-02-27T10:01:25.360Z,8.60
2023-02-27T10:04:23.195Z,9.50
2023-02-27T10:06:56.127Z,8.30
2023-02-27T10:09:34.620Z,9.00
2023-02-27T10:12:22.107Z,8.70
2023-02-27T10:15:10.202Z,8.10
2023-02-27T10:17:41.864Z,8.30
2023-02-27T10:20:17.341Z,8.10
2023-02-27T10:22:46.559Z,7.90
2023-02-27T10:25:30.350Z,7.90
2023-02-27T10:28:08.990Z,7.60
2023-02-27T10:30:36.620Z,8.20
2023-02-27T10:33:03.641Z,7.70
2023-02-27T10:35:39.887Z,8.70
2023-02-27T10:38:30.188Z,8.10
2023-02-27T10:40:59.241Z,7.60
2023-02-27T10:43:26.250Z,8.10
2023-02-27T10:45:54.524Z,7.50
2023-02-27T10:48:23.181Z,7.60
2023-02-27T10:50:53.985Z,8.10
2023-02-27T10:53:26.371Z,7.90
2023-02-27T10:56:07.990Z,7.80
2023-02-27T10:58:37.023Z,8.80
2023-02-27T11:01:15.046Z,8.20
2023-02-27T11:03:44.348Z,7.70
2023-02-27T11:06:23.653Z,7.80
2023-02-27T11:09:12.863Z,8.20
2023-02-27T11:11:39.902Z,8.50
2023-02-27T11:14:25.278Z,8.40
2023-02-27T11:16:58.279Z,8.80
2023-02-27T11:19:31.463Z,9.20
2023-02-27T11:22:02.914Z,9.90
2023-02-27T11:24:29.874Z,10.20
2023-02-27T11:27:05.495Z,9.70
2023-02-27T11:29:34.655Z,9.30
2023-02-27T11:32:13.437Z,9.00
2023-02-27T11:34:48.186Z,8.90
2023-02-27T11:37:36.208Z,9.40
2023-02-27T11:40:09.452Z,9.20
2023-02-27T11:42:41.909Z,9.50
2023-02-27T11:46:08.028Z,9.90
2023-02-27T11:48:21.701Z,9.30
2023-02-27T11:51:00.460Z,8.80
2023-02-27T11:53:38.430Z,8.00
2023-02-27T11:56:11.837Z,7.60
2023-02-27T11:58:53.748Z,7.50
2023-02-27T12:01:32.174Z,7.90
2023-02-27T12:04:10.148Z,8.70
2023-02-27T12:06:59.208Z,8.50
2023-02-27T12:09:44.874Z,8.40
2023-02-27T12:12:45.224Z,8.10
2023-02-27T12:15:30.637Z,8.10
2023-02-27T12:18:04.193Z,9.20
2023-02-27T12:20:36.984Z,10.10
2023-02-27T12:23:13.318Z,8.30
2023-02-27T12:25:49.311Z,7.70
2023-02-27T12:28:26.013Z,7.10
2023-02-27T12:30:52.941Z,6.90
2023-02-27T12:33:33.086Z,6.50
2023-02-27T12:36:03.667Z,6.20
2023-02-27T12:38:31.371Z,5.50
2023-02-27T12:41:03.416Z,5.00
2023-02-27T12:44:16.800Z,4.60
2023-02-27T12:46:52.732Z,4.40
2023-02-27T12:49:41.974Z,4.30
2023-02-27T12:52:25.785Z,3.90
2023-02-27T12:55:03.461Z,4.20
2023-02-27T12:57:59.150Z,4.20
2023-02-27T13:00:33.095Z,3.90
2023-02-27T13:03:29.851Z,3.90
2023-02-27T13:06:01.802Z,3.50
2023-02-27T13:09:00.425Z,3.20
2023-02-27T13:11:43.283Z,3.30
2023-02-27T13:14:37.652Z,3.60
2023-02-27T13:17:18.792Z,3.30
2023-02-27T13:19:51.512Z,3.10
2023-02-27T13:22:24.521Z,3.00
2023-02-27T13:24:55.287Z,3.00
2023-02-27T13:27:35.040Z,3.20
2023-02-27T13:30:08.632Z,3.10
2023-02-27T13:32:43.522Z,3.10
2023-02-27T13:35:22.804Z,3.30
2023-02-27T13:37:53.843Z,3.10
2023-02-27T13:40:28.937Z,2.90
2023-02-27T13:43:02.071Z,2.90
2023-02-27T13:45:47.880Z,2.70
2023-02-27T13:48:33.422Z,2.20
2023-02-27T13:51:01.278Z,2.20
2023-02-27T13:53:29.931Z,2.20
2023-02-27T13:56:22.390Z,2.10
2023-02-27T13:58:50.213Z,2.10
2023-02-27T14:01:22.455Z,2.00
2023-02-27T14:03:59.501Z,1.90
2023-02-27T14:06:30.100Z,2.00
2023-02-27T14:09:12.756Z,1.90
2023-02-27T14:11:51.129Z,1.90
2023-02-27T14:14:47.750Z,1.90
2023-02-27T14:17:37.225Z,1.90
2023-02-27T14:20:29.111Z,1.70
2023-02-27T14:23:27.276Z,1.70
2023-02-27T14:26:38.460Z,1.50
2023-02-27T14:29:05.993Z,1.60
2023-02-27T14:31:36.498Z,1.50
2023-02-27T14:34:09.280Z,1.40
2023-02-27T14:36:47.156Z,1.30
2023-02-27T14:39:23.452Z,1.20
2023-02-27T14:41:59.912Z,1.20
2023-02-27T14:44:29.398Z,1.20
2023-02-27T14:46:58.870Z,1.20
2023-02-27T14:49:29.959Z,1.30
2023-02-27T14:51:57.627Z,1.10
2023-02-27T14:54:27.577Z,1.10
2023-02-27T14:57:00.562Z,1.10
2023-02-27T14:59:34.176Z,1.10
2023-02-27T15:02:04.567Z,1.00
2023-02-27T15:04:33.208Z,1.00
2023-02-27T15:07:02.263Z,1.00
2023-02-27T15:09:43.263Z,0.90
2023-02-27T15:12:20.970Z,0.80
2023-02-27T15:14:51.600Z,0.80
2023-02-27T15:17:27.517Z,0.70
2023-02-27T15:19:57.647Z,0.70
2023-02-27T15:22:38.394Z,0.70
2023-02-27T15:25:08.166Z,0.70
2023-02-27T15:27:37.673Z,0.60
2023-02-27T15:30:06.471Z,0.60
2023-02-27T15:32:37.197Z,0.60
2023-02-27T15:35:13.297Z,0.50
2023-02-27T15:37:44.806Z,0.50
2023-02-27T15:40:19.613Z,0.40
2023-02-27T15:42:46.861Z,0.30
2023-02-27T15:45:22.426Z,0.30
2023-02-27T15:47:49.756Z,0.30
2023-02-27T15:50:16.586Z,0.30
2023-02-27T15:52:43.502Z,0.20
2023-02-27T15:55:16.186Z,0.20
2023-02-27T15:57:56.642Z,0.10
2023-02-27T16:00:31.179Z,0.00
2023-02-27T16:02:59.556Z,0.00
2023-02-27T16:05:53.444Z,0.00
2023-02-27T16:08:21.452Z,0.00
2023-02-27T16:10:51.543Z,0.00
2023-02-27T16:14:03.516Z,-0.10
2023-02-27T16:16:39.053Z,-0.10
2023-02-27T16:19:29.691Z,-0.10
2023-02-27T16:22:17.284Z,0.00
2023-02-27T16:24:45.083Z,-0.10
2023-02-27T16:27:33.856Z,-0.10
2023-02-27T16:30:15.654Z,-0.10
2023-02-27T16:32:46.807Z,-0.10
2023-02-27T16:35:23.376Z,-0.20
2023-02-27T16:37:51.255Z,-0.20
2023-02-27T16:40:29.197Z,-0.20
2023-02-27T16:43:02.304Z,-0.20
2023-02-27T16:45:37.190Z,-0.20
2023-02-27T16:48:05.540Z,-0.20
2023-02-27T16:50:38.044Z,-0.20
2023-02-27T16:53:05.101Z,-0.20
2023-02-27T16:55:33.770Z,-0.20
2023-02-27T16:58:03.633Z,-0.20
2023-02-27T17:00:33.675Z,-0.20
2023-02-27T17:03:03.992Z,-0.20
2023-02-27T17:05:31.532Z,-0.30
2023-02-27T17:07:58.513Z,-0.30
2023-02-27T17:10:26.499Z,-0.30
2023-02-27T17:12:56.162Z,-0.30
2023-02-27T17:15:27.935Z,-0.30
2023-02-27T17:17:55.024Z,-0.30
2023-02-27T17:20:22.171Z,-0.30
2023-02-27T17:22:51.958Z,-0.20
2023-02-27T17:25:19.010Z,-0.30
2023-02-27T17:27:49.746Z,-0.30
2023-02-27T17:30:16.998Z,-0.30
2023-02-27T17:32:47.896Z,-0.40
2023-02-27T17:35:14.855Z,-0.50
2023-02-27T17:37:41.798Z,-0.50
2023-02-27T17:40:09.554Z,-0.50
2023-02-27T17:42:37.230Z,-0.50
2023-02-27T17:45:06.490Z,-0.50
2023-02-27T17:47:34.145Z,-0.50
2023-02-27T17:50:01.760Z,-0.50
2023-02-27T17:52:48.286Z,-0.60
2023-02-27T17:55:17.447Z,-0.60
2023-02-27T17:57:44.458Z,-0.60
2023-02-27T18:00:16.738Z,-0.60
2023-02-27T18:02:45.424Z,-0.60
2023-02-27T18:05:12.536Z,-0.60
2023-02-27T18:07:40.894Z,-0.60
2023-02-27T18:10:11.324Z,-0.60
2023-02-27T18:12:38.381Z,-0.60
2023-02-27T18:15:06.640Z,-0.60
2023-02-27T18:17:33.712Z,-0.70
2023-02-27T18:20:00.894Z,-0.70
2023-02-27T18:22:30.064Z,-0.70
2023-02-27T18:24:58.829Z,-0.70
2023-02-27T18:27:28.251Z,-0.80
2023-02-27T18:29:57.933Z,-0.80
2023-02-27T18:32:25.213Z,-0.80
2023-02-27T18:34:58.766Z,-0.80
2023-02-27T18:37:26.020Z,-0.80
2023-02-27T18:39:53.121Z,-0.80
2023-02-27T18:42:20.131Z,-0.80
2023-02-27T18:44:48.392Z,-0.90
2023-02-27T18:47:15.372Z,-0.90
2023-02-27T18:49:42.590Z,-0.90
2023-02-27T18:52:09.934Z,-0.90
2023-02-27T18:54:40.994Z,-0.90
2023-02-27T18:57:08.203Z,-0.80
2023-02-27T18:59:35.601Z,-0.90
2023-02-27T19:02:02.704Z,-0.90
2023-02-27T19:04:34.782Z,-0.90
2023-02-27T19:07:01.674Z,-0.90
2023-02-27T19:09:32.809Z,-1.00
2023-02-27T19:12:00.841Z,-1.00
2023-02-27T19:14:28.062Z,-1.10
2023-02-27T19:16:56.717Z,-1.00
2023-02-27T19:19:23.811Z,-0.90
2023-02-27T19:21:50.799Z,-1.00
2023-02-27T19:24:17.727Z,-0.90
2023-02-27T19:26:44.733Z,-0.90
2023-02-27T19:29:11.634Z,-0.90
2023-02-27T19:31:38.644Z,-0.90
2023-02-27T19:34:05.786Z,-0.90
2023-02-27T19:36:34.643Z,-0.80
2023-02-27T19:39:02.306Z,-0.80
2023-02-27T19:41:30.052Z,-0.90
2023-02-27T19:43:58.354Z,-0.80
2023-02-27T19:46:31.231Z,-0.80
2023-02-27T19:49:01.487Z,-0.90
2023-02-27T19:51:29.015Z,-0.90
2023-02-27T19:53:56.296Z,-0.90
2023-02-27T19:56:25.432Z,-1.00
2023-02-27T19:58:54.051Z,-1.00
2023-02-27T20:01:26.522Z,-1.00
2023-02-27T20:04:01.495Z,-1.00
2023-02-27T20:06:31.175Z,-1.10
2023-02-27T20:09:03.708Z,-1.10
2023-02-27T20:11:35.302Z,-1.10
2023-02-27T20:14:02.854Z,-1.20
2023-02-27T20:16:30.731Z,-1.20
2023-02-27T20:18:58.991Z,-1.20
2023-02-27T20:21:28.903Z,-1.20
2023-02-27T20:23:56.977Z,-1.20
2023-02-27T20:26:32.215Z,-1.20
2023-02-27T20:29:15.818Z,-1.20
2023-02-27T20:32:13.898Z,-1.20
2023-02-27T20:34:47.901Z,-1.20
2023-02-27T20:37:15.516Z,-1.20
2023-02-27T20:39:45.512Z,-1.30
2023-02-27T20:42:14.162Z,-1.30
2023-02-27T20:44:44.135Z,-1.20
2023-02-27T20:47:18.805Z,-1.30
2023-02-27T20:49:45.956Z,-1.30
2023-02-27T20:52:13.147Z,-1.30
2023-02-27T20:54:40.086Z,-1.30
2023-02-27T20:57:07.031Z,-1.30
2023-02-27T20:59:34.387Z,-1.30
2023-02-27T21:02:12.158Z,-1.40
2023-02-27T21:04:52.388Z,-1.30
2023-02-27T21:07:21.882Z,-1.40
2023-02-27T21:09:49.273Z,-1.40
2023-02-27T21:12:17.293Z,-1.30
2023-02-27T21:14:45.385Z,-1.20
2023-02-27T21:17:13.838Z,-1.30
2023-02-27T21:19:40.860Z,-1.20
2023-02-27T21:22:11.114Z,-1.30
2023-02-27T21:24:38.215Z,-1.30
2023-02-27T21:27:05.617Z,-1.30
2023-02-27T21:29:32.587Z,-1.20
2023-02-27T21:31:59.705Z,-1.30
2023-02-27T21:34:27.987Z,-1.20
2023-02-27T21:36:55.527Z,-1.30
2023-02-27T21:39:30.490Z,-1.20
2023-02-27T21:42:01.547Z,-1.20
2023-02-27T21:44:29.760Z,-1.10
2023-02-27T21:46:56.672Z,-1.10
2023-02-27T21:49:28.707Z,-1.00
2023-02-27T21:51:55.848Z,-1.00
2023-02-27T21:54:24.476Z,-0.90
2023-02-27T21:56:51.668Z,-0.90
2023-02-27T21:59:20.195Z,-0.90
2023-02-27T22:01:48.356Z,-0.90
2023-02-27T22:04:17.649Z,-0.80
2023-02-27T22:06:45.240Z,-0.80
2023-02-27T22:09:12.669Z,-0.80
2023-02-27T22:11:41.005Z,-0.80
2023-02-27T22:14:09.397Z,-0.80
2023-02-27T22:16:36.559Z,-0.80
2023-02-27T22:19:08.687Z,-0.70
2023-02-27T22:21:36.972Z,-0.70
2023-02-27T22:24:04.690Z,-0.70
2023-02-27T22:26:32.363Z,-0.70
2023-02-27T22:28:59.623Z,-0.60
2023-02-27T22:31:32.291Z,-0.60
2023-02-27T22:34:05.350Z,-0.60
2023-02-27T22:36:33.668Z,-0.60
2023-02-27T22:39:01.693Z,-0.50
2023-02-27T22:41:31.708Z,-0.50
2023-02-27T22:44:00.129Z,-0.50
2023-02-27T22:46:33.618Z,-0.50
2023-02-27T22:49:04.564Z,-0.40
2023-02-27T22:51:31.557Z,-0.40
2023-02-27T22:54:01.799Z,-0.30
2023-02-27T22:56:29.197Z,-0.20
2023-02-27T22:58:56.684Z,-0.10
2023-02-27T23:01:29.944Z,-0.10
2023-02-27T23:03:59.661Z,-0.10
2023-02-27T23:06:34.702Z,0.00
2023-02-27T23:09:03.472Z,0.00
2023-02-27T23:11:30.902Z,0.00
2023-02-27T23:13:58.190Z,0.10
2023-02-27T23:16:25.349Z,0.10
2023-02-27T23:18:54.723Z,0.10
2023-02-27T23:21:24.297Z,0.10
2023-02-27T23:23:53.927Z,0.10
2023-02-27T23:26:21.390Z,0.00
2023-02-27T23:28:48.426Z,0.00
2023-02-27T23:31:15.459Z,-0.10
2023-02-27T23:33:42.408Z,-0.10
2023-02-27T23:36:09.479Z,-0.10
2023-02-27T23:38:36.389Z,-0.10
2023-02-27T23:41:07.706Z,0.00
2023-02-27T23:43:35.207Z,0.00
2023-02-27T23:46:10.563Z,0.00
2023-02-27T23:48:37.806Z,0.00
2023-02-27T23:51:06.769Z,0.00
2023-02-27T23:53:38.695Z,0.00
2023-02-27T23:56:20.089Z,-0.10
2023-02-27T23:58:48.039Z,-0.10
